Time;durP1;ratioP1;P1;durP2;ratioP2;P2;SDS_P1;SDS_P2;PMS_P1;PMS_P2;Temp;Humidity;BMP_temperature;BMP_pressure;BME280_temperature;BME280_humidity;BME280_pressure;Samples;Min_cycle;Max_cycle;Signal;HPM_P1;HPM_P2
2022/03/08 00:01:45;;;;;;;0.03;0.03;;;;;;;;;;4952168;28;20233;-72
2022/03/08 00:04:13;;;;;;;0.97;0.93;;;;;;;;;;4953328;28;20213;-71
2022/03/08 00:06:40;;;;;;;2.50;1.70;;;;;;;;;;4951459;28;20294;-71
2022/03/08 00:09:08;;;;;;;1.80;1.20;;;;;;;;;;4952069;29;20668;-72
2022/03/08 00:11:35;;;;;;;0.57;0.53;;;;;;;;;;4952391;28;20206;-72
2022/03/08 00:14:02;;;;;;;0.67;0.67;;;;;;;;;;4953467;28;20208;-72
2022/03/08 00:16:30;;;;;;;0.00;0.00;;;;;;;;;;4955516;28;20706;-73
2022/03/08 00:18:58;;;;;;;0.50;0.50;;;;;;;;;;4957212;29;20205;-73
2022/03/08 00:21:26;;;;;;;0.10;0.10;;;;;;;;;;4955749;28;20213;-72
2022/03/08 00:23:53;;;;;;;0.00;0.00;;;;;;;;;;4950963;28;20198;-71
2022/03/08 00:26:20;;;;;;;0.20;0.20;;;;;;;;;;4945505;28;20664;-72
2022/03/08 00:28:48;;;;;;;0.50;0.50;;;;;;;;;;4948111;28;20207;-69
2022/03/08 00:31:15;;;;;;;0.10;0.10;;;;;;;;;;4947156;28;20199;-73
2022/03/08 00:33:43;;;;;;;1.40;1.10;;;;;;;;;;4948085;29;20210;-71
2022/03/08 00:36:12;;;;;;;0.10;0.10;;;;;;;;;;4947076;28;20226;-73
2022/03/08 00:38:39;;;;;;;0.30;0.30;;;;;;;;;;4948615;28;20201;-73
2022/03/08 00:41:06;;;;;;;0.30;0.30;;;;;;;;;;4947544;28;20199;-72
2022/03/08 00:43:34;;;;;;;0.83;0.83;;;;;;;;;;4948746;29;20600;-72
2022/03/08 00:46:01;;;;;;;0.80;0.80;;;;;;;;;;4948271;28;20203;-72
2022/03/08 00:48:28;;;;;;;0.30;0.30;;;;;;;;;;4948529;28;20205;-72
2022/03/08 00:50:56;;;;;;;0.00;0.00;;;;;;;;;;4948758;28;20661;-72
2022/03/08 00:53:24;;;;;;;0.20;0.20;;;;;;;;;;4948917;28;20207;-70
2022/03/08 00:55:52;;;;;;;0.10;0.10;;;;;;;;;;4947020;28;20229;-72
2022/03/08 00:58:19;;;;;;;5.10;4.83;;;;;;;;;;4948421;28;20203;-72
2022/03/08 01:00:46;;;;;;;0.00;0.00;;;;;;;;;;4947904;28;20203;-72
2022/03/08 01:03:14;;;;;;;0.20;0.20;;;;;;;;;;4949320;28;20199;-72
2022/03/08 01:05:41;;;;;;;1.53;1.43;;;;;;;;;;4947906;28;20673;-73
2022/03/08 01:08:08;;;;;;;0.43;0.43;;;;;;;;;;4947949;29;20211;-72
2022/03/08 01:10:37;;;;;;;1.37;1.27;;;;;;;;;;4949501;28;20205;-69
2022/03/08 01:13:05;;;;;;;3.00;0.87;;;;;;;;;;4952122;29;20195;-72
2022/03/08 01:15:32;;;;;;;0.00;0.00;;;;;;;;;;4947834;28;20214;-72
2022/03/08 01:17:59;;;;;;;0.00;0.00;;;;;;;;;;4947373;28;21933;-71
2022/03/08 01:20:27;;;;;;;0.00;0.00;;;;;;;;;;4947003;28;20199;-71
2022/03/08 01:22:55;;;;;;;0.57;0.57;;;;;;;;;;4947654;28;20983;-71
2022/03/08 01:25:23;;;;;;;0.27;0.27;;;;;;;;;;4949235;28;20205;-72
2022/03/08 01:27:52;;;;;;;0.57;0.57;;;;;;;;;;4945404;28;20210;-72
2022/03/08 01:30:20;;;;;;;1.17;0.57;;;;;;;;;;4946803;28;20206;-72
2022/03/08 01:32:48;;;;;;;0.50;0.40;;;;;;;;;;4947459;29;20207;-70
2022/03/08 01:35:16;;;;;;;0.33;0.33;;;;;;;;;;4953931;28;20590;-71
2022/03/08 01:37:44;;;;;;;0.20;0.20;;;;;;;;;;4955167;29;20227;-71
2022/03/08 01:40:15;;;;;;;1.00;0.30;;;;;;;;;;4947682;28;20195;-72
2022/03/08 01:42:42;;;;;;;1.43;1.33;;;;;;;;;;4946990;28;20293;-73
2022/03/08 01:45:11;;;;;;;0.83;0.30;;;;;;;;;;4948237;28;20210;-72
2022/03/08 01:47:39;;;;;;;0.00;0.00;;;;;;;;;;4954224;29;20209;-73
2022/03/08 01:50:06;;;;;;;0.53;0.53;;;;;;;;;;4950561;28;20199;-69
2022/03/08 01:52:34;;;;;;;0.40;0.40;;;;;;;;;;4948197;29;20707;-72
2022/03/08 01:55:01;;;;;;;1.57;1.00;;;;;;;;;;4947201;28;20704;-72
2022/03/08 01:57:29;;;;;;;7.17;6.33;;;;;;;;;;4948692;29;20656;-72
2022/03/08 01:59:56;;;;;;;0.87;0.87;;;;;;;;;;4944670;28;20697;-72
2022/03/08 02:02:25;;;;;;;0.03;0.03;;;;;;;;;;4946615;29;20215;-69
2022/03/08 02:04:53;;;;;;;0.00;0.00;;;;;;;;;;4947868;28;20226;-70
2022/03/08 02:07:20;;;;;;;0.30;0.30;;;;;;;;;;4945559;28;20209;-70
2022/03/08 02:09:48;;;;;;;0.23;0.23;;;;;;;;;;4946398;28;20206;-70
2022/03/08 02:12:15;;;;;;;0.20;0.20;;;;;;;;;;4946808;29;20207;-71
2022/03/08 02:14:43;;;;;;;2.00;1.30;;;;;;;;;;4946233;28;20199;-71
2022/03/08 02:17:10;;;;;;;0.00;0.00;;;;;;;;;;4941412;28;20235;-72
2022/03/08 02:19:39;;;;;;;0.10;0.10;;;;;;;;;;4944968;29;20199;-72
2022/03/08 02:22:08;;;;;;;0.00;0.00;;;;;;;;;;4943926;28;20288;-72
2022/03/08 02:24:36;;;;;;;0.03;0.03;;;;;;;;;;4944668;29;20222;-72
2022/03/08 02:27:03;;;;;;;0.30;0.30;;;;;;;;;;4941572;28;20242;-72
2022/03/08 02:29:30;;;;;;;0.30;0.30;;;;;;;;;;4945651;28;20202;-72
2022/03/08 02:31:58;;;;;;;1.17;0.80;;;;;;;;;;4945799;28;20198;-71
2022/03/08 02:34:25;;;;;;;1.50;1.40;;;;;;;;;;4946583;29;20218;-72
2022/03/08 02:37:00;;;;;;;0.00;0.00;;;;;;;;;;4943103;28;20226;-71
2022/03/08 02:39:29;;;;;;;0.23;0.23;;;;;;;;;;4946821;28;20564;-70
2022/03/08 02:41:56;;;;;;;1.07;0.97;;;;;;;;;;4946482;28;20199;-72
2022/03/08 02:44:24;;;;;;;0.60;0.30;;;;;;;;;;4949338;28;20191;-72
2022/03/08 02:46:52;;;;;;;1.80;1.63;;;;;;;;;;4944744;28;20215;-72
2022/03/08 02:49:19;;;;;;;0.20;0.20;;;;;;;;;;4946204;28;20359;-72
2022/03/08 02:51:47;;;;;;;1.23;1.23;;;;;;;;;;4945371;28;20199;-73
2022/03/08 02:54:14;;;;;;;0.57;0.50;;;;;;;;;;4944594;28;20712;-71
2022/03/08 02:56:43;;;;;;;3.33;2.13;;;;;;;;;;4944273;28;20723;-71
2022/03/08 02:59:10;;;;;;;0.57;0.53;;;;;;;;;;4950819;28;20210;-71
2022/03/08 03:01:38;;;;;;;0.10;0.10;;;;;;;;;;4953586;28;20199;-72
2022/03/08 03:04:05;;;;;;;0.23;0.23;;;;;;;;;;4953710;29;20199;-73
2022/03/08 03:06:35;;;;;;;2.13;1.13;;;;;;;;;;4952777;29;20928;-71
2022/03/08 03:09:02;;;;;;;2.10;0.90;;;;;;;;;;4953679;28;20195;-72
2022/03/08 03:11:30;;;;;;;3.20;1.97;;;;;;;;;;4952457;28;20325;-72
2022/03/08 03:13:58;;;;;;;2.67;2.17;;;;;;;;;;4954160;29;20205;-73
2022/03/08 03:16:26;;;;;;;0.67;0.67;;;;;;;;;;4952104;28;20203;-72
2022/03/08 03:18:53;;;;;;;0.53;0.47;;;;;;;;;;4953740;29;20199;-73
2022/03/08 03:21:21;;;;;;;0.57;0.57;;;;;;;;;;4953092;28;20206;-73
2022/03/08 03:23:48;;;;;;;0.67;0.53;;;;;;;;;;4953502;29;20584;-72
2022/03/08 03:26:15;;;;;;;3.20;1.70;;;;;;;;;;4961425;28;20202;-71
2022/03/08 03:28:42;;;;;;;0.60;0.60;;;;;;;;;;4953627;29;20215;-71
2022/03/08 03:31:11;;;;;;;0.10;0.10;;;;;;;;;;4949958;28;20210;-71
2022/03/08 03:33:38;;;;;;;4.53;2.73;;;;;;;;;;4953195;29;20584;-71
2022/03/08 03:36:06;;;;;;;0.37;0.37;;;;;;;;;;4950776;28;20207;-71
2022/03/08 03:38:33;;;;;;;1.07;1.07;;;;;;;;;;4952721;29;20245;-72
2022/03/08 03:41:01;;;;;;;0.13;0.07;;;;;;;;;;4951705;28;20668;-72
2022/03/08 03:43:28;;;;;;;3.23;1.97;;;;;;;;;;4951745;29;20203;-71
2022/03/08 03:45:56;;;;;;;0.73;0.63;;;;;;;;;;4953129;29;20199;-70
2022/03/08 03:48:24;;;;;;;0.50;0.50;;;;;;;;;;4953015;29;20195;-71
2022/03/08 03:50:52;;;;;;;1.10;0.63;;;;;;;;;;4941284;28;20210;-72
2022/03/08 03:53:19;;;;;;;0.10;0.10;;;;;;;;;;4950495;28;20210;-70
2022/03/08 03:55:46;;;;;;;0.17;0.17;;;;;;;;;;4953487;29;20195;-75
2022/03/08 03:58:15;;;;;;;0.63;0.63;;;;;;;;;;4952283;29;20281;-71
2022/03/08 04:00:42;;;;;;;0.83;0.83;;;;;;;;;;4951408;28;20226;-71
2022/03/08 04:03:09;;;;;;;0.20;0.20;;;;;;;;;;4951772;28;20211;-72
2022/03/08 04:05:38;;;;;;;0.60;0.60;;;;;;;;;;4952934;28;20665;-71
2022/03/08 04:08:06;;;;;;;1.10;0.97;;;;;;;;;;4953339;28;20217;-72
2022/03/08 04:10:33;;;;;;;0.43;0.43;;;;;;;;;;4952478;28;20206;-71
2022/03/08 04:13:00;;;;;;;0.87;0.87;;;;;;;;;;4950262;28;20203;-72
2022/03/08 04:15:28;;;;;;;2.30;2.10;;;;;;;;;;4953236;28;20195;-72
2022/03/08 04:17:55;;;;;;;2.33;1.23;;;;;;;;;;4952346;28;20237;-72
2022/03/08 04:20:22;;;;;;;0.00;0.00;;;;;;;;;;4952393;28;20199;-72
2022/03/08 04:22:51;;;;;;;0.40;0.40;;;;;;;;;;4953891;28;20206;-72
2022/03/08 04:25:18;;;;;;;0.10;0.10;;;;;;;;;;4956736;28;20199;-72
2022/03/08 04:27:46;;;;;;;0.40;0.40;;;;;;;;;;4972518;28;20195;-72
2022/03/08 04:30:13;;;;;;;0.00;0.00;;;;;;;;;;4970413;28;20208;-72
2022/03/08 04:32:41;;;;;;;1.90;0.97;;;;;;;;;;4948933;28;20203;-70
2022/03/08 04:35:09;;;;;;;0.13;0.07;;;;;;;;;;4951519;28;20241;-73
2022/03/08 04:37:36;;;;;;;3.00;2.73;;;;;;;;;;4942614;28;20227;-72
2022/03/08 04:40:06;;;;;;;3.70;1.93;;;;;;;;;;4944731;29;20203;-70
2022/03/08 04:42:33;;;;;;;0.20;0.20;;;;;;;;;;4942479;28;20219;-73
2022/03/08 04:45:01;;;;;;;0.20;0.20;;;;;;;;;;4942771;28;20203;-71
2022/03/08 04:47:28;;;;;;;3.40;1.63;;;;;;;;;;4944452;29;20575;-71
2022/03/08 04:49:55;;;;;;;0.70;0.70;;;;;;;;;;4945419;28;20203;-70
2022/03/08 04:52:23;;;;;;;1.50;1.33;;;;;;;;;;4943219;28;20207;-71
2022/03/08 04:54:50;;;;;;;1.20;1.10;;;;;;;;;;4945096;28;20701;-70
2022/03/08 04:57:19;;;;;;;1.00;1.00;;;;;;;;;;4946834;28;20708;-71
2022/03/08 04:59:46;;;;;;;0.00;0.00;;;;;;;;;;4952071;28;20199;-69
2022/03/08 05:02:13;;;;;;;2.57;2.37;;;;;;;;;;4952261;28;20278;-72
2022/03/08 05:04:41;;;;;;;1.70;1.60;;;;;;;;;;4956221;28;20214;-70
2022/03/08 05:07:08;;;;;;;1.30;1.20;;;;;;;;;;4955313;28;20226;-72
2022/03/08 05:09:35;;;;;;;1.40;1.13;;;;;;;;;;4955341;28;20207;-69
2022/03/08 05:12:03;;;;;;;6.03;1.90;;;;;;;;;;4948242;29;20207;-70
2022/03/08 05:14:32;;;;;;;0.20;0.20;;;;;;;;;;4955944;28;20199;-71
2022/03/08 05:16:59;;;;;;;1.73;1.10;;;;;;;;;;4950524;28;20696;-71
2022/03/08 05:19:27;;;;;;;1.30;0.63;;;;;;;;;;4946967;29;20195;-72
2022/03/08 05:21:54;;;;;;;0.90;0.90;;;;;;;;;;4945186;28;20218;-69
2022/03/08 05:24:21;;;;;;;1.23;1.13;;;;;;;;;;4946884;28;20211;-70
2022/03/08 05:26:49;;;;;;;0.50;0.50;;;;;;;;;;4947547;28;20788;-69
2022/03/08 05:29:16;;;;;;;1.63;1.53;;;;;;;;;;4944963;28;20564;-70
2022/03/08 05:31:45;;;;;;;2.37;2.20;;;;;;;;;;4943592;28;20684;-70
2022/03/08 05:34:14;;;;;;;3.70;2.60;;;;;;;;;;4946494;29;20203;-70
2022/03/08 05:36:41;;;;;;;3.70;1.57;;;;;;;;;;4944397;28;20207;-69
2022/03/08 05:39:08;;;;;;;1.80;0.97;;;;;;;;;;4946022;28;21601;-69
2022/03/08 05:41:36;;;;;;;0.37;0.37;;;;;;;;;;4944184;28;20206;-71
2022/03/08 05:44:04;;;;;;;1.70;1.30;;;;;;;;;;4946725;29;20712;-69
2022/03/08 05:46:32;;;;;;;0.33;0.33;;;;;;;;;;4950209;28;21621;-72
2022/03/08 05:49:00;;;;;;;3.50;2.47;;;;;;;;;;4946116;29;20661;-69
2022/03/08 05:51:28;;;;;;;0.37;0.37;;;;;;;;;;4945838;28;20238;-69
2022/03/08 05:53:55;;;;;;;1.30;0.73;;;;;;;;;;4947468;28;20226;-70
2022/03/08 05:56:22;;;;;;;0.57;0.43;;;;;;;;;;4955079;29;20203;-71
2022/03/08 05:58:50;;;;;;;1.53;1.43;;;;;;;;;;4955251;28;20231;-70
2022/03/08 06:01:17;;;;;;;0.20;0.20;;;;;;;;;;4952313;28;20203;-71
2022/03/08 06:03:44;;;;;;;0.00;0.00;;;;;;;;;;4952412;28;20214;-70
2022/03/08 06:06:13;;;;;;;0.00;0.00;;;;;;;;;;4950684;28;20661;-69
2022/03/08 06:08:41;;;;;;;0.00;0.00;;;;;;;;;;4953227;29;20665;-70
2022/03/08 06:11:08;;;;;;;0.00;0.00;;;;;;;;;;4954315;28;20258;-71
2022/03/08 06:13:35;;;;;;;0.00;0.00;;;;;;;;;;4951643;28;20657;-70
2022/03/08 06:16:03;;;;;;;0.00;0.00;;;;;;;;;;4950290;28;20222;-70
2022/03/08 06:18:30;;;;;;;0.13;0.13;;;;;;;;;;4953273;28;20604;-71
2022/03/08 06:20:57;;;;;;;0.00;0.00;;;;;;;;;;4955156;28;20215;-70
2022/03/08 06:23:27;;;;;;;0.00;0.00;;;;;;;;;;4956866;29;20206;-71
2022/03/08 06:25:55;;;;;;;1.30;1.30;;;;;;;;;;4955898;28;20206;-70
2022/03/08 06:28:22;;;;;;;3.40;2.17;;;;;;;;;;4954969;28;20555;-71
2022/03/08 06:30:49;;;;;;;6.23;0.63;;;;;;;;;;4952766;28;20588;-70
2022/03/08 06:33:17;;;;;;;0.73;0.73;;;;;;;;;;4951435;28;20209;-71
2022/03/08 06:35:44;;;;;;;0.13;0.13;;;;;;;;;;4952193;29;20211;-70
2022/03/08 06:38:11;;;;;;;2.83;1.43;;;;;;;;;;4954597;29;20296;-71
2022/03/08 06:40:40;;;;;;;3.03;1.83;;;;;;;;;;4953653;28;20206;-71
2022/03/08 06:43:07;;;;;;;1.43;0.87;;;;;;;;;;4954496;29;20211;-71
2022/03/08 06:45:35;;;;;;;0.43;0.20;;;;;;;;;;4954344;29;20691;-71
2022/03/08 06:48:02;;;;;;;4.57;2.13;;;;;;;;;;4952199;28;20203;-70
2022/03/08 06:50:29;;;;;;;3.20;0.50;;;;;;;;;;4952950;28;20609;-70
2022/03/08 06:52:57;;;;;;;0.00;0.00;;;;;;;;;;4954506;29;20615;-71
2022/03/08 06:55:25;;;;;;;1.40;0.60;;;;;;;;;;4954288;29;20241;-73
2022/03/08 06:57:54;;;;;;;1.30;1.20;;;;;;;;;;4954193;28;20286;-72
2022/03/08 07:00:21;;;;;;;0.83;0.73;;;;;;;;;;4951370;28;20211;-70
2022/03/08 07:02:49;;;;;;;1.60;1.20;;;;;;;;;;4954154;28;20640;-70
2022/03/08 07:05:16;;;;;;;1.60;0.93;;;;;;;;;;4954191;28;20207;-71
2022/03/08 07:07:43;;;;;;;1.93;0.50;;;;;;;;;;4955140;28;20215;-71
2022/03/08 07:10:11;;;;;;;1.80;1.53;;;;;;;;;;4955697;28;20199;-71
2022/03/08 07:12:38;;;;;;;3.33;1.43;;;;;;;;;;4955560;28;20199;-70
2022/03/08 07:15:08;;;;;;;4.13;3.50;;;;;;;;;;4956547;28;20202;-71
2022/03/08 07:17:36;;;;;;;3.03;2.10;;;;;;;;;;4957612;28;20242;-70
2022/03/08 07:20:03;;;;;;;2.80;2.23;;;;;;;;;;4956032;28;20562;-70
2022/03/08 07:22:32;;;;;;;2.83;1.23;;;;;;;;;;4957712;28;20206;-70
2022/03/08 07:24:59;;;;;;;3.20;2.23;;;;;;;;;;4954232;28;20229;-71
2022/03/08 07:27:27;;;;;;;1.60;1.50;;;;;;;;;;4944103;28;20191;-70
2022/03/08 07:29:54;;;;;;;1.67;1.23;;;;;;;;;;4955391;28;20205;-72
2022/03/08 07:32:23;;;;;;;4.83;1.93;;;;;;;;;;4957051;29;20199;-72
2022/03/08 07:34:50;;;;;;;2.83;0.53;;;;;;;;;;4955186;28;20579;-70
2022/03/08 07:37:18;;;;;;;3.40;1.13;;;;;;;;;;4968128;28;20225;-72
2022/03/08 07:39:45;;;;;;;2.37;1.57;;;;;;;;;;4968922;28;20241;-72
2022/03/08 07:42:12;;;;;;;1.30;1.17;;;;;;;;;;4950101;28;20945;-70
2022/03/08 07:44:40;;;;;;;2.87;2.00;;;;;;;;;;4950154;29;20637;-69
2022/03/08 07:47:08;;;;;;;0.93;0.93;;;;;;;;;;4946055;29;20203;-70
2022/03/08 07:49:37;;;;;;;0.13;0.13;;;;;;;;;;4949363;29;20199;-70
2022/03/08 07:52:05;;;;;;;0.97;0.97;;;;;;;;;;4952263;29;20218;-71
2022/03/08 07:54:32;;;;;;;2.70;2.07;;;;;;;;;;4953072;29;20237;-72
2022/03/08 07:56:59;;;;;;;2.00;1.07;;;;;;;;;;4951489;29;20229;-72
2022/03/08 07:59:28;;;;;;;1.17;1.13;;;;;;;;;;4951698;28;20695;-71
2022/03/08 08:01:55;;;;;;;3.97;3.57;;;;;;;;;;4952991;29;20230;-71
2022/03/08 08:04:23;;;;;;;1.23;1.13;;;;;;;;;;4969871;28;20766;-72
2022/03/08 08:06:52;;;;;;;0.43;0.43;;;;;;;;;;4972442;28;20230;-73
2022/03/08 08:09:19;;;;;;;0.77;0.77;;;;;;;;;;4972282;28;20220;-72
2022/03/08 08:11:46;;;;;;;0.20;0.20;;;;;;;;;;4933675;28;20195;-71
2022/03/08 08:14:14;;;;;;;2.20;2.00;;;;;;;;;;4940106;28;20210;-71
2022/03/08 08:16:41;;;;;;;1.00;1.00;;;;;;;;;;4943042;28;20241;-71
2022/03/08 08:19:09;;;;;;;0.57;0.57;;;;;;;;;;4949425;28;20747;-72
2022/03/08 08:21:36;;;;;;;0.43;0.43;;;;;;;;;;4950093;28;20202;-72
2022/03/08 08:24:06;;;;;;;0.63;0.33;;;;;;;;;;4949081;28;20211;-72
2022/03/08 08:26:33;;;;;;;0.00;0.00;;;;;;;;;;4947431;28;20203;-73
2022/03/08 08:29:00;;;;;;;2.23;2.10;;;;;;;;;;4947780;28;20287;-73
2022/03/08 08:31:28;;;;;;;2.37;2.13;;;;;;;;;;4946565;28;20687;-74
2022/03/08 08:33:56;;;;;;;1.20;1.20;;;;;;;;;;4945241;28;20211;-72
2022/03/08 08:36:25;;;;;;;1.80;1.43;;;;;;;;;;4951665;28;20207;-74
2022/03/08 08:38:52;;;;;;;0.47;0.47;;;;;;;;;;4952990;28;20235;-74
2022/03/08 08:41:21;;;;;;;6.00;1.70;;;;;;;;;;4949710;28;20203;-73
2022/03/08 08:43:48;;;;;;;1.23;1.13;;;;;;;;;;4951324;28;20210;-72
2022/03/08 08:46:16;;;;;;;3.87;1.43;;;;;;;;;;4952281;28;20210;-73
2022/03/08 08:48:43;;;;;;;0.90;0.90;;;;;;;;;;4951354;28;20202;-72
2022/03/08 08:51:10;;;;;;;0.00;0.00;;;;;;;;;;4948352;28;20215;-74
2022/03/08 08:53:38;;;;;;;2.50;1.87;;;;;;;;;;4947106;28;20203;-74
2022/03/08 08:56:05;;;;;;;2.07;1.93;;;;;;;;;;4953487;28;20214;-74
2022/03/08 08:58:34;;;;;;;1.50;1.03;;;;;;;;;;4952442;28;20596;-75
2022/03/08 09:01:02;;;;;;;2.20;1.70;;;;;;;;;;4951471;28;20207;-75
2022/03/08 09:03:29;;;;;;;0.87;0.83;;;;;;;;;;4951379;28;20210;-73
2022/03/08 09:05:57;;;;;;;0.67;0.67;;;;;;;;;;4953927;28;20210;-73
2022/03/08 09:08:24;;;;;;;0.47;0.47;;;;;;;;;;4952677;29;20199;-73
2022/03/08 09:10:52;;;;;;;0.40;0.40;;;;;;;;;;4954906;29;20218;-74
2022/03/08 09:13:20;;;;;;;1.40;1.17;;;;;;;;;;4951287;28;20195;-74
2022/03/08 09:15:49;;;;;;;5.53;1.40;;;;;;;;;;4954859;28;20581;-73
2022/03/08 09:18:17;;;;;;;1.10;0.97;;;;;;;;;;4952279;28;20227;-73
2022/03/08 09:20:45;;;;;;;1.47;1.37;;;;;;;;;;4954570;28;20572;-73
2022/03/08 09:23:13;;;;;;;2.53;2.03;;;;;;;;;;4954919;28;20677;-73
2022/03/08 09:25:40;;;;;;;0.47;0.47;;;;;;;;;;4955168;28;20202;-73
2022/03/08 09:28:07;;;;;;;0.80;0.80;;;;;;;;;;4954630;28;20203;-73
2022/03/08 09:30:36;;;;;;;6.30;3.30;;;;;;;;;;4954412;28;20233;-72
2022/03/08 09:33:06;;;;;;;0.20;0.20;;;;;;;;;;4951657;28;20285;-74
2022/03/08 09:35:33;;;;;;;26.10;10.33;;;;;;;;;;4955519;29;20199;-73
2022/03/08 09:38:02;;;;;;;2.97;1.97;;;;;;;;;;4954142;28;20207;-74
2022/03/08 09:40:29;;;;;;;0.50;0.50;;;;;;;;;;4948521;28;20234;-74
2022/03/08 09:42:57;;;;;;;1.53;1.10;;;;;;;;;;4951883;28;20600;-75
2022/03/08 09:45:24;;;;;;;2.70;2.07;;;;;;;;;;4957120;28;20253;-74
2022/03/08 09:47:51;;;;;;;2.30;1.93;;;;;;;;;;4955030;28;20209;-76
2022/03/08 09:50:20;;;;;;;1.50;1.10;;;;;;;;;;4954394;28;20266;-73
2022/03/08 09:52:48;;;;;;;1.67;1.43;;;;;;;;;;4953538;28;20207;-74
2022/03/08 09:55:16;;;;;;;1.77;1.67;;;;;;;;;;4952175;28;20226;-75
2022/03/08 09:57:44;;;;;;;1.83;1.57;;;;;;;;;;4952219;28;21171;-75
2022/03/08 10:00:12;;;;;;;1.40;1.17;;;;;;;;;;4952918;28;20231;-77
2022/03/08 10:02:44;;;;;;;1.60;1.00;;;;;;;;;;4954374;28;20604;-77
2022/03/08 10:05:11;;;;;;;1.13;0.43;;;;;;;;;;4951968;28;20202;-77
2022/03/08 10:07:40;;;;;;;1.27;1.17;;;;;;;;;;4960992;28;20583;-79
2022/03/08 10:10:07;;;;;;;3.87;2.97;;;;;;;;;;4959043;28;20302;-78
2022/03/08 10:12:35;;;;;;;2.37;1.93;;;;;;;;;;4954914;29;20578;-79
2022/03/08 10:15:18;;;;;;;3.00;1.90;;;;;;;;;;4951241;29;20207;-80
2022/03/08 10:17:45;;;;;;;3.60;2.47;;;;;;;;;;4952156;28;20199;-78
2022/03/08 10:20:13;;;;;;;3.03;1.93;;;;;;;;;;4952645;28;20230;-79
2022/03/08 10:22:43;;;;;;;2.53;2.17;;;;;;;;;;4954649;28;20560;-75
2022/03/08 10:25:15;;;;;;;2.40;1.87;;;;;;;;;;4944042;28;20734;-75
2022/03/08 10:27:46;;;;;;;1.57;1.47;;;;;;;;;;4940523;28;20213;-76
2022/03/08 10:30:13;;;;;;;1.60;1.10;;;;;;;;;;4952440;28;20218;-70
2022/03/08 10:32:41;;;;;;;3.67;2.17;;;;;;;;;;4948795;28;20262;-78
2022/03/08 10:35:11;;;;;;;1.03;1.03;;;;;;;;;;4950868;28;20676;-77
2022/03/08 10:37:39;;;;;;;1.23;0.80;;;;;;;;;;4950647;28;20206;-73
2022/03/08 10:40:09;;;;;;;3.53;1.77;;;;;;;;;;4951225;28;20231;-78
2022/03/08 10:42:37;;;;;;;1.40;1.30;;;;;;;;;;4952826;28;20214;-75
2022/03/08 10:45:06;;;;;;;0.10;0.10;;;;;;;;;;4953937;28;20206;-77
2022/03/08 10:47:39;;;;;;;2.60;1.67;;;;;;;;;;4952397;28;20207;-76
2022/03/08 10:50:07;;;;;;;0.73;0.73;;;;;;;;;;4949423;28;20243;-77
2022/03/08 10:52:35;;;;;;;0.73;0.73;;;;;;;;;;4949442;28;20259;-76
2022/03/08 10:55:11;;;;;;;1.50;1.40;;;;;;;;;;4950465;28;20230;-76
2022/03/08 10:57:39;;;;;;;1.80;1.37;;;;;;;;;;4945725;28;20207;-76
2022/03/08 11:00:11;;;;;;;1.73;1.57;;;;;;;;;;4948668;28;20253;-76
2022/03/08 11:02:49;;;;;;;1.53;0.97;;;;;;;;;;4949082;28;20266;-76
2022/03/08 11:05:18;;;;;;;1.20;1.13;;;;;;;;;;4949500;28;20692;-76
2022/03/08 11:07:45;;;;;;;3.67;2.00;;;;;;;;;;4951757;28;20213;-74
2022/03/08 11:10:15;;;;;;;0.40;0.37;;;;;;;;;;4950190;28;20199;-75
2022/03/08 11:12:42;;;;;;;1.97;0.80;;;;;;;;;;4947128;28;20203;-76
2022/03/08 11:15:11;;;;;;;2.27;1.80;;;;;;;;;;4948838;28;20210;-74
2022/03/08 11:17:41;;;;;;;2.00;1.87;;;;;;;;;;4948210;28;20227;-74
2022/03/08 11:20:10;;;;;;;6.93;2.77;;;;;;;;;;4946785;28;20692;-75
2022/03/08 11:22:38;;;;;;;2.73;2.43;;;;;;;;;;4942716;28;20872;-76
2022/03/08 11:25:06;;;;;;;2.93;2.13;;;;;;;;;;4945756;28;20206;-73
2022/03/08 11:27:36;;;;;;;2.77;1.67;;;;;;;;;;4946806;28;20327;-75
2022/03/08 11:30:04;;;;;;;1.30;1.13;;;;;;;;;;4948370;28;20214;-75
2022/03/08 11:32:33;;;;;;;3.43;1.83;;;;;;;;;;4948804;28;21355;-76
2022/03/08 11:35:03;;;;;;;2.60;1.60;;;;;;;;;;4946961;28;20218;-73
2022/03/08 11:37:31;;;;;;;2.93;1.73;;;;;;;;;;4947233;28;20210;-74
2022/03/08 11:40:09;;;;;;;2.37;2.17;;;;;;;;;;4948397;28;20238;-74
2022/03/08 11:42:42;;;;;;;3.10;1.40;;;;;;;;;;4948257;28;20688;-75
2022/03/08 11:45:11;;;;;;;3.10;1.77;;;;;;;;;;4946015;28;20231;-74
2022/03/08 11:47:40;;;;;;;5.33;2.47;;;;;;;;;;4949227;28;20216;-75
2022/03/08 11:50:18;;;;;;;0.60;0.60;;;;;;;;;;4949127;28;20467;-74
2022/03/08 11:52:45;;;;;;;1.77;1.67;;;;;;;;;;4949128;28;20203;-76
2022/03/08 11:55:13;;;;;;;2.93;2.07;;;;;;;;;;4946090;28;20234;-77
2022/03/08 11:57:56;;;;;;;2.47;2.20;;;;;;;;;;4948571;28;20575;-75
2022/03/08 12:00:25;;;;;;;0.77;0.70;;;;;;;;;;4948415;28;20262;-75
2022/03/08 12:02:53;;;;;;;2.40;1.20;;;;;;;;;;4947496;28;20215;-75
2022/03/08 12:05:40;;;;;;;0.90;0.70;;;;;;;;;;4945482;28;20669;-76
2022/03/08 12:08:25;;;;;;;1.00;0.90;;;;;;;;;;4948087;28;20210;-74
2022/03/08 12:10:57;;;;;;;0.23;0.23;;;;;;;;;;4948802;28;20210;-75
2022/03/08 12:13:27;;;;;;;1.67;0.80;;;;;;;;;;4949433;28;20211;-75
2022/03/08 12:16:13;;;;;;;0.70;0.70;;;;;;;;;;4950915;29;20221;-74
2022/03/08 12:18:42;;;;;;;0.00;0.00;;;;;;;;;;4952053;28;20217;-74
2022/03/08 12:21:28;;;;;;;2.43;2.00;;;;;;;;;;4948931;28;20240;-73
2022/03/08 12:23:56;;;;;;;3.20;1.27;;;;;;;;;;4949718;28;20226;-74
2022/03/08 12:26:24;;;;;;;1.37;1.23;;;;;;;;;;4952895;28;20210;-74
2022/03/08 12:29:10;;;;;;;2.07;1.87;;;;;;;;;;4952132;28;20681;-74
2022/03/08 12:31:52;;;;;;;5.43;2.97;;;;;;;;;;4951516;28;20223;-73
2022/03/08 12:34:20;;;;;;;1.23;1.20;;;;;;;;;;4948958;28;20207;-74
2022/03/08 12:37:02;;;;;;;1.33;0.93;;;;;;;;;;4951810;28;20218;-74
2022/03/08 12:39:46;;;;;;;1.50;1.40;;;;;;;;;;4951449;28;20672;-73
2022/03/08 12:42:20;;;;;;;1.43;1.33;;;;;;;;;;4951701;28;20218;-74
2022/03/08 12:44:53;;;;;;;1.97;1.87;;;;;;;;;;4951701;28;20230;-74
2022/03/08 12:47:21;;;;;;;3.50;1.97;;;;;;;;;;4946190;28;20664;-73
2022/03/08 12:49:49;;;;;;;2.03;1.20;;;;;;;;;;4948758;28;20207;-74
2022/03/08 12:52:17;;;;;;;5.93;2.80;;;;;;;;;;4950085;28;20647;-72
2022/03/08 12:54:47;;;;;;;1.27;1.27;;;;;;;;;;4949619;29;20746;-75
2022/03/08 12:57:15;;;;;;;1.83;1.47;;;;;;;;;;4951735;28;20206;-75
2022/03/08 12:59:43;;;;;;;2.93;1.83;;;;;;;;;;4949837;28;20226;-74
2022/03/08 13:02:12;;;;;;;2.93;2.73;;;;;;;;;;4950217;28;20222;-74
2022/03/08 13:04:40;;;;;;;3.93;3.60;;;;;;;;;;4951363;28;20214;-74
2022/03/08 13:07:08;;;;;;;1.50;1.40;;;;;;;;;;4951520;28;20673;-74
2022/03/08 13:09:51;;;;;;;1.13;1.00;;;;;;;;;;4952218;28;20626;-75
2022/03/08 13:12:19;;;;;;;3.83;2.77;;;;;;;;;;4950917;28;20552;-75
2022/03/08 13:15:01;;;;;;;2.43;2.23;;;;;;;;;;4951269;28;20203;-74
2022/03/08 13:17:31;;;;;;;0.80;0.80;;;;;;;;;;4951543;28;20215;-73
2022/03/08 13:19:59;;;;;;;2.60;2.07;;;;;;;;;;4947578;28;20227;-74
2022/03/08 13:22:26;;;;;;;1.50;0.87;;;;;;;;;;4945496;28;20211;-74
2022/03/08 13:25:09;;;;;;;0.87;0.87;;;;;;;;;;4948771;28;20207;-75
2022/03/08 13:48:34;;;;;;;3.37;1.83;;;;;;;;;;5503915;23;20282;-69
2022/03/08 13:51:03;;;;;;;1.70;1.60;;;;;;;;;;4941705;28;20221;-75
2022/03/08 13:53:31;;;;;;;10.03;2.50;;;;;;;;;;4945550;28;20473;-71
2022/03/08 13:55:59;;;;;;;0.93;0.93;;;;;;;;;;4947935;28;20207;-70
2022/03/08 13:58:27;;;;;;;0.00;0.00;;;;;;;;;;4940776;28;23553;-80
2022/03/08 14:00:54;;;;;;;1.03;0.27;;;;;;;;;;4928607;29;20242;-72
2022/03/08 14:03:23;;;;;;;1.63;1.53;;;;;;;;;;4923608;29;20222;-72
2022/03/08 14:05:53;;;;;;;4.27;3.57;;;;;;;;;;4927237;29;20222;-71
2022/03/08 14:08:30;;;;;;;0.90;0.90;;;;;;;;;;4927831;29;20672;-72
2022/03/08 14:11:00;;;;;;;0.87;0.87;;;;;;;;;;4927041;29;20266;-72
2022/03/08 14:13:28;;;;;;;3.37;2.00;;;;;;;;;;4920845;29;20209;-72
2022/03/08 14:15:58;;;;;;;1.57;1.47;;;;;;;;;;4924686;29;20211;-72
2022/03/08 14:18:26;;;;;;;3.77;2.17;;;;;;;;;;4925581;29;20210;-76
2022/03/08 14:20:55;;;;;;;1.00;1.00;;;;;;;;;;4923746;29;20728;-76
2022/03/08 14:23:24;;;;;;;1.43;1.30;;;;;;;;;;4928293;29;20677;-73
2022/03/08 14:26:05;;;;;;;1.83;1.73;;;;;;;;;;4924901;29;20578;-75
2022/03/08 14:28:49;;;;;;;0.10;0.10;;;;;;;;;;4926162;29;20801;-73
2022/03/08 14:31:20;;;;;;;1.37;1.30;;;;;;;;;;4926521;29;20673;-73
2022/03/08 14:34:10;;;;;;;1.30;0.83;;;;;;;;;;4924774;29;20239;-74
2022/03/08 14:36:40;;;;;;;0.80;0.77;;;;;;;;;;4926153;29;20240;-71
2022/03/08 14:39:21;;;;;;;2.17;0.93;;;;;;;;;;4924957;29;20306;-71
2022/03/08 14:41:56;;;;;;;1.80;1.70;;;;;;;;;;4923657;29;20243;-79
2022/03/08 14:44:23;;;;;;;1.47;1.40;;;;;;;;;;4926597;29;20200;-73
2022/03/08 14:46:51;;;;;;;0.73;0.67;;;;;;;;;;4925600;29;20399;-76
2022/03/08 14:49:19;;;;;;;0.23;0.23;;;;;;;;;;4925130;29;20255;-75
2022/03/08 14:51:48;;;;;;;0.27;0.27;;;;;;;;;;4924326;29;20220;-78
2022/03/08 14:54:15;;;;;;;3.03;2.73;;;;;;;;;;4922314;29;20298;-76
2022/03/08 14:56:43;;;;;;;0.93;0.90;;;;;;;;;;4923453;29;20209;-73
2022/03/08 14:59:11;;;;;;;0.60;0.57;;;;;;;;;;4922688;29;20298;-79
2022/03/08 15:01:39;;;;;;;1.50;1.50;;;;;;;;;;4921157;29;20239;-73
2022/03/08 15:04:08;;;;;;;1.53;1.37;;;;;;;;;;4919581;29;20220;-77
2022/03/08 15:06:36;;;;;;;4.23;3.83;;;;;;;;;;4928037;29;20212;-73
2022/03/08 15:09:05;;;;;;;2.00;1.90;;;;;;;;;;4922111;29;20204;-74
2022/03/08 15:11:32;;;;;;;1.63;1.50;;;;;;;;;;4922861;29;20216;-76
2022/03/08 15:14:00;;;;;;;0.83;0.83;;;;;;;;;;4925674;29;20286;-73